sensor_id;sensor_type;location;lat;lon;timestamp;P1;durP1;ratioP1;P2;durP2;ratioP2
75044;SDS011;63614;56.026;35.960;2023-08-20T00:02:23;26.08;;;14.27;;
75044;SDS011;63614;56.026;35.960;2023-08-20T00:04:50;23.50;;;14.40;;
75044;SDS011;63614;56.026;35.960;2023-08-20T00:07:16;25.85;;;14.65;;
75044;SDS011;63614;56.026;35.960;2023-08-20T00:09:44;24.38;;;15.15;;
75044;SDS011;63614;56.026;35.960;2023-08-20T00:12:10;24.98;;;14.07;;
75044;SDS011;63614;56.026;35.960;2023-08-20T00:17:24;21.77;;;14.52;;
75044;SDS011;63614;56.026;35.960;2023-08-20T00:19:53;26.15;;;14.63;;
75044;SDS011;63614;56.026;35.960;2023-08-20T00:22:21;24.55;;;13.90;;
75044;SDS011;63614;56.026;35.960;2023-08-20T00:24:48;25.48;;;13.93;;
75044;SDS011;63614;56.026;35.960;2023-08-20T00:27:15;25.02;;;14.88;;
75044;SDS011;63614;56.026;35.960;2023-08-20T00:29:40;22.65;;;15.57;;
75044;SDS011;63614;56.026;35.960;2023-08-20T00:32:06;23.52;;;14.65;;
75044;SDS011;63614;56.026;35.960;2023-08-20T00:34:33;24.83;;;14.52;;
75044;SDS011;63614;56.026;35.960;2023-08-20T00:36:59;20.63;;;13.77;;
75044;SDS011;63614;56.026;35.960;2023-08-20T00:39:24;19.45;;;14.80;;
75044;SDS011;63614;56.026;35.960;2023-08-20T00:41:51;25.95;;;14.23;;
75044;SDS011;63614;56.026;35.960;2023-08-20T00:44:17;26.40;;;15.60;;
75044;SDS011;63614;56.026;35.960;2023-08-20T00:46:43;26.05;;;15.38;;
75044;SDS011;63614;56.026;35.960;2023-08-20T00:49:08;34.63;;;16.35;;
75044;SDS011;63614;56.026;35.960;2023-08-20T00:51:35;25.75;;;15.32;;
75044;SDS011;63614;56.026;35.960;2023-08-20T00:54:02;25.50;;;16.27;;
75044;SDS011;63614;56.026;35.960;2023-08-20T00:56:28;21.25;;;15.23;;
75044;SDS011;63614;56.026;35.960;2023-08-20T00:58:55;24.63;;;15.37;;
75044;SDS011;63614;56.026;35.960;2023-08-20T01:01:21;23.77;;;15.73;;
75044;SDS011;63614;56.026;35.960;2023-08-20T01:03:47;33.15;;;17.58;;
75044;SDS011;63614;56.026;35.960;2023-08-20T01:09:06;34.47;;;18.98;;
75044;SDS011;63614;56.026;35.960;2023-08-20T01:11:44;26.73;;;17.40;;
75044;SDS011;63614;56.026;35.960;2023-08-20T01:14:16;33.42;;;16.38;;
75044;SDS011;63614;56.026;35.960;2023-08-20T01:16:43;26.77;;;15.63;;
75044;SDS011;63614;56.026;35.960;2023-08-20T01:19:14;26.95;;;14.82;;
75044;SDS011;63614;56.026;35.960;2023-08-20T01:21:56;23.52;;;14.30;;
75044;SDS011;63614;56.026;35.960;2023-08-20T01:30:07;22.05;;;12.65;;
75044;SDS011;63614;56.026;35.960;2023-08-20T01:32:33;19.00;;;13.25;;
75044;SDS011;63614;56.026;35.960;2023-08-20T01:37:26;18.25;;;9.48;;
75044;SDS011;63614;56.026;35.960;2023-08-20T01:39:52;14.02;;;9.57;;
75044;SDS011;63614;56.026;35.960;2023-08-20T01:42:18;16.75;;;10.02;;
75044;SDS011;63614;56.026;35.960;2023-08-20T01:44:45;17.95;;;9.38;;
75044;SDS011;63614;56.026;35.960;2023-08-20T01:47:10;12.60;;;9.10;;
75044;SDS011;63614;56.026;35.960;2023-08-20T01:49:36;18.20;;;9.85;;
75044;SDS011;63614;56.026;35.960;2023-08-20T01:52:02;18.70;;;9.77;;
75044;SDS011;63614;56.026;35.960;2023-08-20T01:54:29;19.95;;;10.73;;
75044;SDS011;63614;56.026;35.960;2023-08-20T01:56:55;15.40;;;10.02;;
75044;SDS011;63614;56.026;35.960;2023-08-20T01:59:21;17.52;;;9.57;;
75044;SDS011;63614;56.026;35.960;2023-08-20T02:01:48;18.65;;;9.50;;
75044;SDS011;63614;56.026;35.960;2023-08-20T02:04:14;21.17;;;8.75;;
75044;SDS011;63614;56.026;35.960;2023-08-20T02:06:39;24.75;;;8.80;;
75044;SDS011;63614;56.026;35.960;2023-08-20T02:09:05;12.82;;;8.32;;
75044;SDS011;63614;56.026;35.960;2023-08-20T02:11:31;17.60;;;8.40;;
75044;SDS011;63614;56.026;35.960;2023-08-20T02:14:01;17.27;;;7.60;;
75044;SDS011;63614;56.026;35.960;2023-08-20T02:18:54;13.95;;;7.90;;
75044;SDS011;63614;56.026;35.960;2023-08-20T02:21:19;14.55;;;8.32;;
75044;SDS011;63614;56.026;35.960;2023-08-20T02:23:45;14.38;;;8.38;;
75044;SDS011;63614;56.026;35.960;2023-08-20T02:26:11;15.77;;;8.95;;
75044;SDS011;63614;56.026;35.960;2023-08-20T02:28:37;13.90;;;8.50;;
75044;SDS011;63614;56.026;35.960;2023-08-20T02:31:04;12.45;;;8.85;;
75044;SDS011;63614;56.026;35.960;2023-08-20T02:33:30;16.17;;;9.00;;
75044;SDS011;63614;56.026;35.960;2023-08-20T02:36:05;14.90;;;8.48;;
75044;SDS011;63614;56.026;35.960;2023-08-20T02:38:31;13.02;;;8.85;;
75044;SDS011;63614;56.026;35.960;2023-08-20T02:40:57;17.90;;;8.00;;
75044;SDS011;63614;56.026;35.960;2023-08-20T02:43:23;15.50;;;8.77;;
75044;SDS011;63614;56.026;35.960;2023-08-20T02:45:49;12.35;;;8.90;;
75044;SDS011;63614;56.026;35.960;2023-08-20T02:48:17;13.20;;;8.55;;
75044;SDS011;63614;56.026;35.960;2023-08-20T02:50:43;15.48;;;9.18;;
75044;SDS011;63614;56.026;35.960;2023-08-20T02:53:09;18.20;;;9.40;;
75044;SDS011;63614;56.026;35.960;2023-08-20T02:55:35;22.42;;;9.10;;
75044;SDS011;63614;56.026;35.960;2023-08-20T02:58:01;14.25;;;8.85;;
75044;SDS011;63614;56.026;35.960;2023-08-20T03:00:29;16.02;;;8.20;;
75044;SDS011;63614;56.026;35.960;2023-08-20T03:02:56;12.30;;;8.32;;
75044;SDS011;63614;56.026;35.960;2023-08-20T03:07:49;16.02;;;8.45;;
75044;SDS011;63614;56.026;35.960;2023-08-20T03:10:14;11.95;;;7.55;;
75044;SDS011;63614;56.026;35.960;2023-08-20T03:12:40;16.55;;;7.07;;
75044;SDS011;63614;56.026;35.960;2023-08-20T03:15:07;13.63;;;6.97;;
75044;SDS011;63614;56.026;35.960;2023-08-20T03:17:33;18.83;;;7.65;;
75044;SDS011;63614;56.026;35.960;2023-08-20T03:19:59;12.75;;;8.55;;
75044;SDS011;63614;56.026;35.960;2023-08-20T03:22:28;17.55;;;9.15;;
75044;SDS011;63614;56.026;35.960;2023-08-20T03:24:54;12.95;;;8.50;;
75044;SDS011;63614;56.026;35.960;2023-08-20T03:27:19;15.48;;;8.45;;
75044;SDS011;63614;56.026;35.960;2023-08-20T03:29:46;19.95;;;9.30;;
75044;SDS011;63614;56.026;35.960;2023-08-20T03:32:12;23.70;;;8.80;;
75044;SDS011;63614;56.026;35.960;2023-08-20T03:34:38;16.98;;;9.10;;
75044;SDS011;63614;56.026;35.960;2023-08-20T03:37:04;15.20;;;8.18;;
75044;SDS011;63614;56.026;35.960;2023-08-20T03:39:30;17.65;;;8.57;;
75044;SDS011;63614;56.026;35.960;2023-08-20T03:41:56;13.45;;;9.07;;
75044;SDS011;63614;56.026;35.960;2023-08-20T03:44:23;22.43;;;8.90;;
75044;SDS011;63614;56.026;35.960;2023-08-20T03:46:49;12.55;;;7.90;;
75044;SDS011;63614;56.026;35.960;2023-08-20T03:49:16;15.60;;;8.30;;
75044;SDS011;63614;56.026;35.960;2023-08-20T03:51:42;15.02;;;8.95;;
75044;SDS011;63614;56.026;35.960;2023-08-20T03:54:09;21.20;;;9.03;;
75044;SDS011;63614;56.026;35.960;2023-08-20T03:56:35;15.48;;;8.45;;
75044;SDS011;63614;56.026;35.960;2023-08-20T03:59:01;13.20;;;7.97;;
75044;SDS011;63614;56.026;35.960;2023-08-20T04:01:29;13.70;;;8.85;;
75044;SDS011;63614;56.026;35.960;2023-08-20T04:03:55;15.02;;;8.80;;
75044;SDS011;63614;56.026;35.960;2023-08-20T04:06:21;13.85;;;8.73;;
75044;SDS011;63614;56.026;35.960;2023-08-20T04:08:48;16.58;;;8.48;;
75044;SDS011;63614;56.026;35.960;2023-08-20T04:11:14;13.75;;;9.13;;
75044;SDS011;63614;56.026;35.960;2023-08-20T04:13:40;15.77;;;8.80;;
75044;SDS011;63614;56.026;35.960;2023-08-20T04:16:09;15.95;;;8.20;;
75044;SDS011;63614;56.026;35.960;2023-08-20T04:18:35;15.67;;;8.50;;
75044;SDS011;63614;56.026;35.960;2023-08-20T04:21:01;14.95;;;9.52;;
75044;SDS011;63614;56.026;35.960;2023-08-20T04:23:26;15.27;;;9.38;;
75044;SDS011;63614;56.026;35.960;2023-08-20T04:25:52;15.93;;;8.52;;
75044;SDS011;63614;56.026;35.960;2023-08-20T04:28:19;12.25;;;8.15;;
75044;SDS011;63614;56.026;35.960;2023-08-20T04:30:45;14.40;;;6.72;;
75044;SDS011;63614;56.026;35.960;2023-08-20T04:33:11;14.70;;;7.10;;
75044;SDS011;63614;56.026;35.960;2023-08-20T04:35:41;10.02;;;5.45;;
75044;SDS011;63614;56.026;35.960;2023-08-20T04:38:07;14.95;;;6.22;;
75044;SDS011;63614;56.026;35.960;2023-08-20T04:40:34;10.20;;;6.10;;
75044;SDS011;63614;56.026;35.960;2023-08-20T04:42:59;9.65;;;5.93;;
75044;SDS011;63614;56.026;35.960;2023-08-20T04:45:25;11.70;;;5.72;;
75044;SDS011;63614;56.026;35.960;2023-08-20T04:47:51;15.45;;;6.15;;
75044;SDS011;63614;56.026;35.960;2023-08-20T04:50:18;9.88;;;5.43;;
75044;SDS011;63614;56.026;35.960;2023-08-20T04:52:44;11.60;;;5.70;;
75044;SDS011;63614;56.026;35.960;2023-08-20T04:55:10;12.55;;;5.32;;
75044;SDS011;63614;56.026;35.960;2023-08-20T04:57:37;10.52;;;5.47;;
75044;SDS011;63614;56.026;35.960;2023-08-20T05:00:03;10.48;;;5.25;;
75044;SDS011;63614;56.026;35.960;2023-08-20T05:02:41;8.02;;;4.80;;
75044;SDS011;63614;56.026;35.960;2023-08-20T05:05:11;15.65;;;5.13;;
75044;SDS011;63614;56.026;35.960;2023-08-20T05:07:38;10.38;;;5.10;;
75044;SDS011;63614;56.026;35.960;2023-08-20T05:10:04;13.20;;;5.32;;
75044;SDS011;63614;56.026;35.960;2023-08-20T05:12:30;9.00;;;5.63;;
75044;SDS011;63614;56.026;35.960;2023-08-20T05:14:56;14.85;;;5.18;;
75044;SDS011;63614;56.026;35.960;2023-08-20T05:17:22;12.50;;;6.32;;
75044;SDS011;63614;56.026;35.960;2023-08-20T05:19:48;13.70;;;5.90;;
75044;SDS011;63614;56.026;35.960;2023-08-20T05:22:14;11.10;;;6.25;;
75044;SDS011;63614;56.026;35.960;2023-08-20T05:24:40;11.60;;;6.50;;
75044;SDS011;63614;56.026;35.960;2023-08-20T05:27:09;9.07;;;6.93;;
75044;SDS011;63614;56.026;35.960;2023-08-20T05:29:44;13.23;;;7.43;;
75044;SDS011;63614;56.026;35.960;2023-08-20T05:32:11;12.13;;;7.22;;
75044;SDS011;63614;56.026;35.960;2023-08-20T05:34:37;22.33;;;8.57;;
75044;SDS011;63614;56.026;35.960;2023-08-20T05:37:03;9.93;;;6.95;;
75044;SDS011;63614;56.026;35.960;2023-08-20T05:41:55;11.77;;;6.53;;
75044;SDS011;63614;56.026;35.960;2023-08-20T05:44:23;9.73;;;6.18;;
75044;SDS011;63614;56.026;35.960;2023-08-20T05:46:49;7.27;;;5.17;;
75044;SDS011;63614;56.026;35.960;2023-08-20T05:49:16;12.05;;;5.10;;
75044;SDS011;63614;56.026;35.960;2023-08-20T05:51:43;6.78;;;4.35;;
75044;SDS011;63614;56.026;35.960;2023-08-20T05:54:09;13.45;;;4.60;;
75044;SDS011;63614;56.026;35.960;2023-08-20T05:56:35;9.45;;;4.25;;
75044;SDS011;63614;56.026;35.960;2023-08-20T05:59:01;9.37;;;4.23;;
75044;SDS011;63614;56.026;35.960;2023-08-20T06:01:27;12.40;;;3.83;;
75044;SDS011;63614;56.026;35.960;2023-08-20T06:03:53;7.40;;;3.27;;
75044;SDS011;63614;56.026;35.960;2023-08-20T06:06:19;10.00;;;3.33;;
75044;SDS011;63614;56.026;35.960;2023-08-20T06:08:44;6.90;;;3.07;;
75044;SDS011;63614;56.026;35.960;2023-08-20T06:11:11;5.72;;;2.90;;
75044;SDS011;63614;56.026;35.960;2023-08-20T06:13:37;5.77;;;3.03;;
75044;SDS011;63614;56.026;35.960;2023-08-20T06:16:03;4.00;;;2.30;;
75044;SDS011;63614;56.026;35.960;2023-08-20T06:18:29;4.90;;;2.60;;
75044;SDS011;63614;56.026;35.960;2023-08-20T06:20:55;6.50;;;2.90;;
75044;SDS011;63614;56.026;35.960;2023-08-20T06:23:21;6.17;;;2.70;;
75044;SDS011;63614;56.026;35.960;2023-08-20T06:25:46;12.57;;;3.20;;
75044;SDS011;63614;56.026;35.960;2023-08-20T06:28:12;9.17;;;3.17;;
75044;SDS011;63614;56.026;35.960;2023-08-20T06:30:38;8.00;;;2.90;;
75044;SDS011;63614;56.026;35.960;2023-08-20T06:33:04;7.03;;;3.10;;
75044;SDS011;63614;56.026;35.960;2023-08-20T06:35:30;5.30;;;2.97;;
75044;SDS011;63614;56.026;35.960;2023-08-20T06:37:55;5.37;;;2.80;;
75044;SDS011;63614;56.026;35.960;2023-08-20T06:40:21;7.23;;;3.03;;
75044;SDS011;63614;56.026;35.960;2023-08-20T06:42:47;4.70;;;2.80;;
75044;SDS011;63614;56.026;35.960;2023-08-20T06:45:14;4.43;;;2.50;;
75044;SDS011;63614;56.026;35.960;2023-08-20T06:47:39;7.15;;;2.70;;
75044;SDS011;63614;56.026;35.960;2023-08-20T06:50:05;3.67;;;2.40;;
75044;SDS011;63614;56.026;35.960;2023-08-20T06:52:31;8.02;;;3.08;;
75044;SDS011;63614;56.026;35.960;2023-08-20T06:54:57;6.05;;;2.90;;
75044;SDS011;63614;56.026;35.960;2023-08-20T06:57:23;9.13;;;3.00;;
75044;SDS011;63614;56.026;35.960;2023-08-20T06:59:49;12.38;;;2.95;;
75044;SDS011;63614;56.026;35.960;2023-08-20T07:02:14;9.67;;;2.90;;
75044;SDS011;63614;56.026;35.960;2023-08-20T07:04:40;6.95;;;3.50;;
75044;SDS011;63614;56.026;35.960;2023-08-20T07:07:06;5.68;;;3.25;;
75044;SDS011;63614;56.026;35.960;2023-08-20T07:09:33;11.32;;;4.07;;
75044;SDS011;63614;56.026;35.960;2023-08-20T07:11:59;10.18;;;4.00;;
75044;SDS011;63614;56.026;35.960;2023-08-20T07:14:25;7.17;;;3.90;;
75044;SDS011;63614;56.026;35.960;2023-08-20T07:16:51;6.82;;;3.22;;
75044;SDS011;63614;56.026;35.960;2023-08-20T07:19:17;11.00;;;2.73;;
75044;SDS011;63614;56.026;35.960;2023-08-20T07:21:42;5.80;;;2.73;;
75044;SDS011;63614;56.026;35.960;2023-08-20T07:24:08;7.83;;;2.97;;
75044;SDS011;63614;56.026;35.960;2023-08-20T07:26:34;16.67;;;2.93;;
75044;SDS011;63614;56.026;35.960;2023-08-20T07:28:59;8.50;;;2.73;;
75044;SDS011;63614;56.026;35.960;2023-08-20T07:31:29;5.03;;;2.67;;
75044;SDS011;63614;56.026;35.960;2023-08-20T07:33:57;7.97;;;2.65;;
75044;SDS011;63614;56.026;35.960;2023-08-20T07:36:24;7.60;;;2.85;;
75044;SDS011;63614;56.026;35.960;2023-08-20T07:38:51;4.13;;;2.50;;
75044;SDS011;63614;56.026;35.960;2023-08-20T07:41:18;8.25;;;2.63;;
75044;SDS011;63614;56.026;35.960;2023-08-20T07:43:47;5.93;;;2.60;;
75044;SDS011;63614;56.026;35.960;2023-08-20T07:48:41;3.90;;;2.78;;
75044;SDS011;63614;56.026;35.960;2023-08-20T07:51:08;5.68;;;2.50;;
75044;SDS011;63614;56.026;35.960;2023-08-20T07:53:34;4.70;;;3.27;;
75044;SDS011;63614;56.026;35.960;2023-08-20T07:56:00;5.10;;;2.73;;
75044;SDS011;63614;56.026;35.960;2023-08-20T07:58:26;6.33;;;3.30;;
75044;SDS011;63614;56.026;35.960;2023-08-20T08:00:54;4.55;;;2.42;;
75044;SDS011;63614;56.026;35.960;2023-08-20T08:03:20;4.35;;;2.50;;
75044;SDS011;63614;56.026;35.960;2023-08-20T08:05:46;5.30;;;2.70;;
75044;SDS011;63614;56.026;35.960;2023-08-20T08:08:14;5.95;;;2.33;;
75044;SDS011;63614;56.026;35.960;2023-08-20T08:10:40;6.75;;;2.90;;
75044;SDS011;63614;56.026;35.960;2023-08-20T08:13:10;6.10;;;2.85;;
75044;SDS011;63614;56.026;35.960;2023-08-20T08:15:39;5.72;;;2.70;;
75044;SDS011;63614;56.026;35.960;2023-08-20T08:18:06;5.90;;;3.00;;
75044;SDS011;63614;56.026;35.960;2023-08-20T08:20:33;5.28;;;2.67;;
75044;SDS011;63614;56.026;35.960;2023-08-20T08:22:59;4.90;;;2.90;;
75044;SDS011;63614;56.026;35.960;2023-08-20T08:25:25;5.05;;;2.90;;
75044;SDS011;63614;56.026;35.960;2023-08-20T08:27:52;4.90;;;3.00;;
75044;SDS011;63614;56.026;35.960;2023-08-20T08:30:17;5.60;;;2.60;;
75044;SDS011;63614;56.026;35.960;2023-08-20T08:32:44;4.18;;;2.60;;
75044;SDS011;63614;56.026;35.960;2023-08-20T08:35:10;5.45;;;2.75;;
75044;SDS011;63614;56.026;35.960;2023-08-20T08:37:36;3.07;;;2.50;;
75044;SDS011;63614;56.026;35.960;2023-08-20T08:40:02;4.50;;;2.63;;
75044;SDS011;63614;56.026;35.960;2023-08-20T08:42:32;5.20;;;2.80;;
75044;SDS011;63614;56.026;35.960;2023-08-20T08:45:02;5.80;;;2.40;;
75044;SDS011;63614;56.026;35.960;2023-08-20T08:47:30;6.45;;;2.90;;
75044;SDS011;63614;56.026;35.960;2023-08-20T08:49:58;4.25;;;2.80;;
75044;SDS011;63614;56.026;35.960;2023-08-20T08:52:24;4.63;;;2.83;;
75044;SDS011;63614;56.026;35.960;2023-08-20T08:54:51;6.65;;;2.67;;
75044;SDS011;63614;56.026;35.960;2023-08-20T08:59:43;4.07;;;2.97;;
75044;SDS011;63614;56.026;35.960;2023-08-20T09:02:10;8.30;;;3.20;;
75044;SDS011;63614;56.026;35.960;2023-08-20T09:04:40;8.43;;;3.08;;
75044;SDS011;63614;56.026;35.960;2023-08-20T09:07:13;5.43;;;3.13;;
75044;SDS011;63614;56.026;35.960;2023-08-20T09:09:46;6.00;;;3.20;;
75044;SDS011;63614;56.026;35.960;2023-08-20T09:12:16;5.85;;;3.38;;
75044;SDS011;63614;56.026;35.960;2023-08-20T09:14:45;5.05;;;3.20;;
75044;SDS011;63614;56.026;35.960;2023-08-20T09:17:13;6.68;;;3.70;;
75044;SDS011;63614;56.026;35.960;2023-08-20T09:19:39;6.28;;;3.65;;
75044;SDS011;63614;56.026;35.960;2023-08-20T09:22:10;4.28;;;3.17;;
75044;SDS011;63614;56.026;35.960;2023-08-20T09:27:28;6.18;;;2.97;;
75044;SDS011;63614;56.026;35.960;2023-08-20T09:29:54;6.67;;;3.70;;
75044;SDS011;63614;56.026;35.960;2023-08-20T09:32:26;7.45;;;3.00;;
75044;SDS011;63614;56.026;35.960;2023-08-20T09:34:54;9.35;;;3.75;;
75044;SDS011;63614;56.026;35.960;2023-08-20T09:37:21;7.43;;;3.60;;
75044;SDS011;63614;56.026;35.960;2023-08-20T09:39:48;5.00;;;3.22;;
75044;SDS011;63614;56.026;35.960;2023-08-20T09:42:14;4.85;;;3.20;;
75044;SDS011;63614;56.026;35.960;2023-08-20T09:44:44;5.95;;;3.35;;
75044;SDS011;63614;56.026;35.960;2023-08-20T09:52:11;9.25;;;3.83;;
75044;SDS011;63614;56.026;35.960;2023-08-20T09:59:58;7.10;;;3.55;;
75044;SDS011;63614;56.026;35.960;2023-08-20T10:02:27;6.30;;;3.47;;
75044;SDS011;63614;56.026;35.960;2023-08-20T10:04:54;6.60;;;3.60;;
75044;SDS011;63614;56.026;35.960;2023-08-20T10:07:20;8.68;;;3.83;;
75044;SDS011;63614;56.026;35.960;2023-08-20T10:09:49;7.68;;;4.00;;
75044;SDS011;63614;56.026;35.960;2023-08-20T10:12:17;7.57;;;3.72;;
75044;SDS011;63614;56.026;35.960;2023-08-20T10:14:43;6.83;;;3.97;;
75044;SDS011;63614;56.026;35.960;2023-08-20T10:17:10;8.35;;;3.92;;
75044;SDS011;63614;56.026;35.960;2023-08-20T10:19:37;6.53;;;3.72;;
75044;SDS011;63614;56.026;35.960;2023-08-20T10:22:07;5.88;;;3.90;;
75044;SDS011;63614;56.026;35.960;2023-08-20T10:25:06;6.95;;;3.90;;
75044;SDS011;63614;56.026;35.960;2023-08-20T10:27:34;5.43;;;3.97;;
75044;SDS011;63614;56.026;35.960;2023-08-20T10:30:07;9.90;;;4.10;;
75044;SDS011;63614;56.026;35.960;2023-08-20T10:32:46;6.30;;;4.13;;
75044;SDS011;63614;56.026;35.960;2023-08-20T10:35:16;6.00;;;3.80;;
75044;SDS011;63614;56.026;35.960;2023-08-20T10:38:07;4.55;;;3.47;;
75044;SDS011;63614;56.026;35.960;2023-08-20T10:48:56;7.03;;;3.90;;
75044;SDS011;63614;56.026;35.960;2023-08-20T10:51:36;7.47;;;3.70;;
75044;SDS011;63614;56.026;35.960;2023-08-20T10:54:06;7.53;;;4.28;;
75044;SDS011;63614;56.026;35.960;2023-08-20T10:59:17;10.18;;;4.55;;
75044;SDS011;63614;56.026;35.960;2023-08-20T11:01:52;7.03;;;4.15;;
75044;SDS011;63614;56.026;35.960;2023-08-20T11:04:23;5.70;;;4.25;;
75044;SDS011;63614;56.026;35.960;2023-08-20T11:06:53;8.32;;;4.00;;
75044;SDS011;63614;56.026;35.960;2023-08-20T11:09:24;5.55;;;4.03;;
75044;SDS011;63614;56.026;35.960;2023-08-20T11:11:51;10.25;;;4.43;;
75044;SDS011;63614;56.026;35.960;2023-08-20T11:14:18;5.47;;;3.97;;
75044;SDS011;63614;56.026;35.960;2023-08-20T11:16:46;7.82;;;4.25;;
75044;SDS011;63614;56.026;35.960;2023-08-20T11:19:14;5.97;;;4.20;;
75044;SDS011;63614;56.026;35.960;2023-08-20T11:21:43;7.32;;;4.15;;
75044;SDS011;63614;56.026;35.960;2023-08-20T11:24:10;6.53;;;4.10;;
75044;SDS011;63614;56.026;35.960;2023-08-20T11:26:40;4.85;;;4.20;;
75044;SDS011;63614;56.026;35.960;2023-08-20T11:29:07;6.45;;;4.47;;
75044;SDS011;63614;56.026;35.960;2023-08-20T11:31:38;8.77;;;4.28;;
75044;SDS011;63614;56.026;35.960;2023-08-20T11:36:31;8.40;;;4.30;;
75044;SDS011;63614;56.026;35.960;2023-08-20T11:38:57;5.30;;;4.20;;
75044;SDS011;63614;56.026;35.960;2023-08-20T11:41:24;12.43;;;4.45;;
75044;SDS011;63614;56.026;35.960;2023-08-20T11:43:51;4.75;;;3.92;;
75044;SDS011;63614;56.026;35.960;2023-08-20T11:46:19;5.57;;;4.32;;
75044;SDS011;63614;56.026;35.960;2023-08-20T11:51:41;12.50;;;4.53;;
75044;SDS011;63614;56.026;35.960;2023-08-20T11:54:11;8.25;;;3.85;;
75044;SDS011;63614;56.026;35.960;2023-08-20T11:56:49;6.43;;;4.38;;
75044;SDS011;63614;56.026;35.960;2023-08-20T11:59:16;6.65;;;4.10;;
75044;SDS011;63614;56.026;35.960;2023-08-20T12:01:49;7.90;;;4.28;;
75044;SDS011;63614;56.026;35.960;2023-08-20T12:04:23;13.90;;;4.50;;
75044;SDS011;63614;56.026;35.960;2023-08-20T12:07:00;5.93;;;3.90;;
75044;SDS011;63614;56.026;35.960;2023-08-20T12:09:30;5.35;;;3.83;;
75044;SDS011;63614;56.026;35.960;2023-08-20T12:11:56;7.90;;;3.90;;
75044;SDS011;63614;56.026;35.960;2023-08-20T12:14:23;8.30;;;3.78;;
75044;SDS011;63614;56.026;35.960;2023-08-20T12:16:50;4.68;;;3.83;;
75044;SDS011;63614;56.026;35.960;2023-08-20T12:19:16;6.10;;;4.18;;
75044;SDS011;63614;56.026;35.960;2023-08-20T12:21:42;5.87;;;4.00;;
75044;SDS011;63614;56.026;35.960;2023-08-20T12:24:09;6.47;;;3.70;;
75044;SDS011;63614;56.026;35.960;2023-08-20T12:29:01;7.68;;;4.20;;
75044;SDS011;63614;56.026;35.960;2023-08-20T12:31:27;6.43;;;4.60;;
75044;SDS011;63614;56.026;35.960;2023-08-20T12:33:53;5.80;;;4.10;;
75044;SDS011;63614;56.026;35.960;2023-08-20T12:36:19;4.60;;;3.90;;
75044;SDS011;63614;56.026;35.960;2023-08-20T12:38:45;10.00;;;4.40;;
75044;SDS011;63614;56.026;35.960;2023-08-20T12:41:11;5.60;;;3.87;;
75044;SDS011;63614;56.026;35.960;2023-08-20T12:43:37;7.13;;;4.20;;
75044;SDS011;63614;56.026;35.960;2023-08-20T12:46:03;5.60;;;3.70;;
75044;SDS011;63614;56.026;35.960;2023-08-20T12:48:29;11.83;;;3.70;;
75044;SDS011;63614;56.026;35.960;2023-08-20T12:50:55;7.78;;;3.97;;
75044;SDS011;63614;56.026;35.960;2023-08-20T12:53:21;7.97;;;4.20;;
75044;SDS011;63614;56.026;35.960;2023-08-20T12:55:47;9.47;;;5.20;;
75044;SDS011;63614;56.026;35.960;2023-08-20T12:58:13;19.08;;;6.57;;
75044;SDS011;63614;56.026;35.960;2023-08-20T13:00:39;8.85;;;5.18;;
75044;SDS011;63614;56.026;35.960;2023-08-20T13:03:05;9.07;;;6.68;;
75044;SDS011;63614;56.026;35.960;2023-08-20T13:05:31;8.13;;;5.82;;
75044;SDS011;63614;56.026;35.960;2023-08-20T13:07:57;10.82;;;5.72;;
75044;SDS011;63614;56.026;35.960;2023-08-20T13:10:23;8.45;;;5.55;;
75044;SDS011;63614;56.026;35.960;2023-08-20T13:12:51;6.90;;;4.60;;
75044;SDS011;63614;56.026;35.960;2023-08-20T13:15:19;7.63;;;4.95;;
75044;SDS011;63614;56.026;35.960;2023-08-20T13:17:47;8.77;;;5.63;;
75044;SDS011;63614;56.026;35.960;2023-08-20T13:20:14;7.22;;;5.30;;
75044;SDS011;63614;56.026;35.960;2023-08-20T13:22:46;8.57;;;5.43;;
75044;SDS011;63614;56.026;35.960;2023-08-20T13:25:16;11.45;;;5.45;;
75044;SDS011;63614;56.026;35.960;2023-08-20T13:27:42;6.80;;;5.40;;
75044;SDS011;63614;56.026;35.960;2023-08-20T13:30:09;8.85;;;5.15;;
75044;SDS011;63614;56.026;35.960;2023-08-20T13:32:36;9.60;;;5.75;;
75044;SDS011;63614;56.026;35.960;2023-08-20T13:35:02;7.20;;;5.10;;
75044;SDS011;63614;56.026;35.960;2023-08-20T13:37:31;12.07;;;6.45;;
75044;SDS011;63614;56.026;35.960;2023-08-20T13:39:58;7.47;;;5.70;;
75044;SDS011;63614;56.026;35.960;2023-08-20T13:42:24;8.20;;;5.43;;
75044;SDS011;63614;56.026;35.960;2023-08-20T13:44:50;7.28;;;5.18;;
75044;SDS011;63614;56.026;35.960;2023-08-20T13:47:16;7.63;;;5.32;;
75044;SDS011;63614;56.026;35.960;2023-08-20T13:49:42;9.70;;;6.57;;
75044;SDS011;63614;56.026;35.960;2023-08-20T13:52:11;18.23;;;7.00;;
75044;SDS011;63614;56.026;35.960;2023-08-20T13:54:37;10.80;;;6.00;;
75044;SDS011;63614;56.026;35.960;2023-08-20T13:57:03;10.48;;;6.00;;
75044;SDS011;63614;56.026;35.960;2023-08-20T13:59:30;10.60;;;6.13;;
75044;SDS011;63614;56.026;35.960;2023-08-20T14:01:56;9.02;;;6.00;;
75044;SDS011;63614;56.026;35.960;2023-08-20T14:04:22;9.77;;;5.53;;
75044;SDS011;63614;56.026;35.960;2023-08-20T14:06:48;13.00;;;5.88;;
75044;SDS011;63614;56.026;35.960;2023-08-20T14:09:14;10.10;;;6.15;;
75044;SDS011;63614;56.026;35.960;2023-08-20T14:11:42;10.63;;;6.20;;
75044;SDS011;63614;56.026;35.960;2023-08-20T14:14:08;8.52;;;5.97;;
75044;SDS011;63614;56.026;35.960;2023-08-20T14:16:34;12.93;;;6.15;;
75044;SDS011;63614;56.026;35.960;2023-08-20T14:19:00;10.93;;;6.30;;
75044;SDS011;63614;56.026;35.960;2023-08-20T14:21:26;18.75;;;6.80;;
75044;SDS011;63614;56.026;35.960;2023-08-20T14:23:51;9.98;;;6.30;;
75044;SDS011;63614;56.026;35.960;2023-08-20T14:26:17;10.85;;;6.22;;
75044;SDS011;63614;56.026;35.960;2023-08-20T14:28:43;9.27;;;6.65;;
75044;SDS011;63614;56.026;35.960;2023-08-20T14:31:09;7.15;;;6.07;;
75044;SDS011;63614;56.026;35.960;2023-08-20T14:33:35;9.85;;;6.78;;
75044;SDS011;63614;56.026;35.960;2023-08-20T14:36:02;9.80;;;6.60;;
75044;SDS011;63614;56.026;35.960;2023-08-20T14:38:31;11.90;;;5.88;;
75044;SDS011;63614;56.026;35.960;2023-08-20T14:41:00;10.43;;;6.60;;
75044;SDS011;63614;56.026;35.960;2023-08-20T14:43:27;10.98;;;6.07;;
75044;SDS011;63614;56.026;35.960;2023-08-20T14:45:54;8.57;;;5.53;;
75044;SDS011;63614;56.026;35.960;2023-08-20T14:48:21;9.77;;;6.53;;
75044;SDS011;63614;56.026;35.960;2023-08-20T14:50:48;12.27;;;6.30;;
75044;SDS011;63614;56.026;35.960;2023-08-20T14:53:15;12.00;;;6.40;;
75044;SDS011;63614;56.026;35.960;2023-08-20T14:55:41;8.93;;;6.03;;
75044;SDS011;63614;56.026;35.960;2023-08-20T14:58:07;9.45;;;5.88;;
75044;SDS011;63614;56.026;35.960;2023-08-20T15:00:33;8.70;;;6.47;;
75044;SDS011;63614;56.026;35.960;2023-08-20T15:02:59;13.25;;;6.72;;
75044;SDS011;63614;56.026;35.960;2023-08-20T15:05:26;11.18;;;6.85;;
75044;SDS011;63614;56.026;35.960;2023-08-20T15:07:52;12.30;;;6.97;;
75044;SDS011;63614;56.026;35.960;2023-08-20T15:10:18;16.08;;;7.03;;
75044;SDS011;63614;56.026;35.960;2023-08-20T15:12:45;9.68;;;6.93;;
75044;SDS011;63614;56.026;35.960;2023-08-20T15:15:11;7.53;;;6.35;;
75044;SDS011;63614;56.026;35.960;2023-08-20T15:17:37;14.48;;;6.80;;
75044;SDS011;63614;56.026;35.960;2023-08-20T15:20:04;8.13;;;6.28;;
75044;SDS011;63614;56.026;35.960;2023-08-20T15:22:39;13.20;;;6.60;;
75044;SDS011;63614;56.026;35.960;2023-08-20T15:25:05;13.82;;;6.53;;